Time;durP1;ratioP1;P1;durP2;ratioP2;P2;SDS_P1;SDS_P2;PMS_P1;PMS_P2;Temp;Humidity;BMP_temperature;BMP_pressure;BME280_temperature;BME280_humidity;BME280_pressure;Samples;Min_cycle;Max_cycle;Signal;HPM_P1;HPM_P2
2022/08/05 00:01:57;;;;;;;7.55;5.20;;;;;;;;;;4973153;28;20031;-77
2022/08/05 00:04:22;;;;;;;7.32;5.57;;;;;;;;;;4973384;28;20030;-77
2022/08/05 00:06:51;;;;;;;9.75;5.65;;;;;;;;;;4988010;28;20093;-77
2022/08/05 00:09:16;;;;;;;9.68;5.05;;;;;;;;;;4988175;28;20030;-77
2022/08/05 00:11:42;;;;;;;8.88;5.60;;;;;;;;;;4971564;28;20141;-77
2022/08/05 00:14:07;;;;;;;10.70;5.70;;;;;;;;;;4973408;28;20107;-77
2022/08/05 00:16:33;;;;;;;6.57;4.82;;;;;;;;;;4973158;28;20031;-77
2022/08/05 00:18:58;;;;;;;6.95;6.10;;;;;;;;;;4987771;28;20038;-77
2022/08/05 00:21:23;;;;;;;9.23;5.85;;;;;;;;;;4987817;28;20332;-77
2022/08/05 00:23:49;;;;;;;9.02;5.72;;;;;;;;;;4964513;28;20028;-76
2022/08/05 00:26:16;;;;;;;6.93;5.93;;;;;;;;;;4954199;29;20031;-77
2022/08/05 00:28:42;;;;;;;7.88;6.13;;;;;;;;;;4955924;28;20031;-77
2022/08/05 00:31:09;;;;;;;7.88;6.22;;;;;;;;;;4955570;29;20027;-77
2022/08/05 00:33:34;;;;;;;7.57;5.90;;;;;;;;;;4953423;29;20635;-77
2022/08/05 00:36:00;;;;;;;6.93;5.78;;;;;;;;;;4953582;29;20106;-77
2022/08/05 00:38:25;;;;;;;10.15;6.05;;;;;;;;;;4963084;29;20027;-77
2022/08/05 00:40:54;;;;;;;7.82;6.03;;;;;;;;;;4960414;29;20023;-77
2022/08/05 00:43:20;;;;;;;6.60;5.45;;;;;;;;;;4959710;29;20027;-78
2022/08/05 00:45:46;;;;;;;8.63;6.55;;;;;;;;;;4958311;29;20027;-76
2022/08/05 00:48:20;;;;;;;8.25;6.25;;;;;;;;;;4958185;29;20096;-77
2022/08/05 00:50:47;;;;;;;9.43;5.97;;;;;;;;;;4954618;29;20543;-77
2022/08/05 00:53:15;;;;;;;7.80;6.15;;;;;;;;;;4953393;29;20474;-77
2022/08/05 00:55:41;;;;;;;10.30;6.03;;;;;;;;;;4952670;29;20023;-77
2022/08/05 00:58:07;;;;;;;9.15;7.13;;;;;;;;;;4953487;29;20061;-77
2022/08/05 01:00:32;;;;;;;7.65;6.05;;;;;;;;;;4951040;28;20491;-77
2022/08/05 01:02:58;;;;;;;11.10;7.00;;;;;;;;;;4951651;28;20122;-77
2022/08/05 01:05:24;;;;;;;13.18;5.85;;;;;;;;;;4951738;29;20035;-77
2022/08/05 01:07:51;;;;;;;7.78;5.80;;;;;;;;;;4951528;29;20035;-77
2022/08/05 01:10:19;;;;;;;6.80;5.32;;;;;;;;;;4951655;29;20139;-77
2022/08/05 01:12:51;;;;;;;7.95;5.95;;;;;;;;;;4952515;29;20058;-77
2022/08/05 01:15:18;;;;;;;;;;;;;;;;;;4951977;29;20019;-77
2022/08/05 01:17:51;;;;;;;8.48;5.55;;;;;;;;;;4951446;29;19914;-77
2022/08/05 01:20:29;;;;;;;8.88;6.35;;;;;;;;;;4952716;29;20031;-78
2022/08/05 01:23:11;;;;;;;12.50;5.95;;;;;;;;;;4954048;28;20031;-77
2022/08/05 01:25:45;;;;;;;10.98;6.22;;;;;;;;;;4972426;28;20113;-77
2022/08/05 01:28:25;;;;;;;6.13;5.50;;;;;;;;;;4970251;28;20461;-77
2022/08/05 01:31:09;;;;;;;7.50;6.15;;;;;;;;;;4970505;28;20466;-77
2022/08/05 01:33:42;;;;;;;9.25;5.55;;;;;;;;;;4972086;28;20030;-77
2022/08/05 01:36:12;;;;;;;11.20;5.95;;;;;;;;;;4971629;28;20034;-78
2022/08/05 01:38:38;;;;;;;13.82;6.72;;;;;;;;;;4971905;28;20383;-77
2022/08/05 01:41:05;;;;;;;8.50;5.63;;;;;;;;;;4986378;28;20023;-77
2022/08/05 01:43:32;;;;;;;9.73;6.40;;;;;;;;;;4986540;28;20121;-77
2022/08/05 01:45:59;;;;;;;6.63;6.03;;;;;;;;;;4986234;28;20022;-77
2022/08/05 01:48:26;;;;;;;7.30;5.78;;;;;;;;;;4986514;28;20590;-77
2022/08/05 01:50:54;;;;;;;11.57;5.88;;;;;;;;;;4986396;28;20027;-77
2022/08/05 01:53:21;;;;;;;7.15;6.18;;;;;;;;;;4986252;28;20023;-77
2022/08/05 01:55:49;;;;;;;6.55;5.95;;;;;;;;;;4986167;28;20038;-77
2022/08/05 01:58:15;;;;;;;9.05;6.10;;;;;;;;;;4971144;28;20019;-76
2022/08/05 02:00:47;;;;;;;7.43;5.97;;;;;;;;;;4986103;28;20034;-77
2022/08/05 02:03:24;;;;;;;6.93;5.88;;;;;;;;;;4969941;28;20096;-77
2022/08/05 02:05:52;;;;;;;7.97;5.55;;;;;;;;;;4986208;28;20058;-77
2022/08/05 02:08:18;;;;;;;11.70;6.78;;;;;;;;;;4971311;28;20090;-77
2022/08/05 02:10:50;;;;;;;6.32;5.72;;;;;;;;;;4971252;28;20031;-77
2022/08/05 02:13:37;;;;;;;15.30;6.03;;;;;;;;;;4985390;28;20411;-77
2022/08/05 02:16:11;;;;;;;8.52;6.15;;;;;;;;;;4985820;28;20054;-77
2022/08/05 02:18:44;;;;;;;7.15;5.78;;;;;;;;;;4969627;28;20027;-77
2022/08/05 02:21:16;;;;;;;12.30;6.28;;;;;;;;;;4985570;28;20026;-77
2022/08/05 02:23:45;;;;;;;8.85;6.45;;;;;;;;;;4978178;28;20031;-77
2022/08/05 02:26:13;;;;;;;7.13;6.18;;;;;;;;;;4951321;29;20031;-77
2022/08/05 02:28:41;;;;;;;7.35;6.07;;;;;;;;;;4951795;29;20027;-77
2022/08/05 02:31:14;;;;;;;6.03;5.43;;;;;;;;;;4951327;29;20392;-77
2022/08/05 02:33:46;;;;;;;8.15;6.05;;;;;;;;;;4951792;29;20483;-76
2022/08/05 02:36:14;;;;;;;10.85;6.00;;;;;;;;;;4950401;29;20031;-77
2022/08/05 02:38:42;;;;;;;9.07;5.70;;;;;;;;;;4950050;29;20050;-77
2022/08/05 02:41:09;;;;;;;7.32;6.07;;;;;;;;;;4951150;29;20511;-77
2022/08/05 02:43:37;;;;;;;7.00;5.97;;;;;;;;;;4950066;29;20055;-77
2022/08/05 02:46:03;;;;;;;7.95;6.25;;;;;;;;;;4966451;28;20023;-77
2022/08/05 02:48:30;;;;;;;13.05;6.70;;;;;;;;;;4950072;29;20027;-77
2022/08/05 02:50:59;;;;;;;15.40;7.25;;;;;;;;;;4950462;29;20434;-77
2022/08/05 02:53:27;;;;;;;9.68;6.35;;;;;;;;;;4949977;29;20103;-77
2022/08/05 02:55:52;;;;;;;9.07;6.57;;;;;;;;;;4950136;29;20031;-77
2022/08/05 02:58:20;;;;;;;17.23;8.80;;;;;;;;;;4951360;29;20038;-77
2022/08/05 03:00:47;;;;;;;58.35;15.82;;;;;;;;;;4951599;29;20054;-77
2022/08/05 03:03:18;;;;;;;36.85;11.13;;;;;;;;;;4950114;29;20027;-77
2022/08/05 03:05:46;;;;;;;18.70;7.72;;;;;;;;;;4950214;29;20031;-77
2022/08/05 03:08:13;;;;;;;13.82;7.15;;;;;;;;;;4951158;29;20753;-77
2022/08/05 03:10:42;;;;;;;14.15;7.22;;;;;;;;;;4950171;29;20333;-77
2022/08/05 03:13:15;;;;;;;14.10;7.15;;;;;;;;;;4951295;29;20122;-77
2022/08/05 03:15:42;;;;;;;10.18;6.80;;;;;;;;;;4951774;28;20027;-77
2022/08/05 03:18:08;;;;;;;12.73;6.80;;;;;;;;;;4949933;29;20019;-77
2022/08/05 03:20:33;;;;;;;12.07;7.20;;;;;;;;;;4951336;28;20502;-77
2022/08/05 03:22:59;;;;;;;12.27;6.70;;;;;;;;;;4954167;28;20055;-77
2022/08/05 03:25:26;;;;;;;7.70;6.10;;;;;;;;;;4972964;28;20029;-77
2022/08/05 03:27:52;;;;;;;11.55;6.85;;;;;;;;;;4973984;28;20373;-76
2022/08/05 03:30:17;;;;;;;7.20;6.25;;;;;;;;;;4974130;28;20031;-76
2022/08/05 03:32:43;;;;;;;6.93;6.07;;;;;;;;;;4988972;28;20093;-76
2022/08/05 03:35:08;;;;;;;9.02;6.75;;;;;;;;;;4973712;28;20060;-77
2022/08/05 03:37:34;;;;;;;11.75;6.32;;;;;;;;;;4973782;28;20456;-77
2022/08/05 03:40:01;;;;;;;11.32;6.90;;;;;;;;;;4988539;28;20035;-77
2022/08/05 03:42:26;;;;;;;9.18;6.78;;;;;;;;;;4988519;28;20049;-77
2022/08/05 03:44:52;;;;;;;9.20;6.65;;;;;;;;;;4988378;28;20657;-77
2022/08/05 03:47:17;;;;;;;11.55;6.55;;;;;;;;;;4988194;28;20035;-77
2022/08/05 03:49:43;;;;;;;13.35;6.70;;;;;;;;;;4972267;28;20040;-77
2022/08/05 03:52:11;;;;;;;14.88;7.05;;;;;;;;;;4973561;28;20467;-77
2022/08/05 03:54:45;;;;;;;10.35;6.93;;;;;;;;;;4974294;28;20027;-77
2022/08/05 03:57:13;;;;;;;9.00;6.80;;;;;;;;;;4990168;28;20031;-78
2022/08/05 03:59:45;;;;;;;11.52;7.22;;;;;;;;;;4976629;28;20074;-78
2022/08/05 04:02:11;;;;;;;12.88;7.40;;;;;;;;;;4978692;28;20031;-78
2022/08/05 04:04:39;;;;;;;16.90;7.50;;;;;;;;;;4993906;28;20027;-78
2022/08/05 04:07:05;;;;;;;10.48;6.88;;;;;;;;;;4977154;28;20033;-78
2022/08/05 04:09:32;;;;;;;13.43;6.88;;;;;;;;;;4988369;28;20089;-77
2022/08/05 04:11:57;;;;;;;16.02;8.90;;;;;;;;;;4987972;28;20124;-77
2022/08/05 04:14:27;;;;;;;7.93;7.05;;;;;;;;;;4987798;28;20069;-77
2022/08/05 04:16:53;;;;;;;19.45;7.55;;;;;;;;;;4988130;28;20023;-77
2022/08/05 04:19:18;;;;;;;10.23;6.57;;;;;;;;;;4973323;28;20030;-77
2022/08/05 04:21:44;;;;;;;14.77;6.82;;;;;;;;;;4988733;28;20114;-77
2022/08/05 04:24:09;;;;;;;7.97;7.13;;;;;;;;;;4962081;28;20459;-77
2022/08/05 04:26:35;;;;;;;15.93;7.45;;;;;;;;;;4953989;29;20118;-76
2022/08/05 04:29:00;;;;;;;11.95;6.97;;;;;;;;;;4952941;28;20126;-77
2022/08/05 04:31:26;;;;;;;11.15;7.72;;;;;;;;;;4952217;29;20081;-76
2022/08/05 04:33:51;;;;;;;12.65;8.07;;;;;;;;;;4953338;28;20033;-76
2022/08/05 04:36:17;;;;;;;9.93;7.20;;;;;;;;;;4951819;29;20392;-76
2022/08/05 04:38:43;;;;;;;10.68;7.13;;;;;;;;;;4951950;29;20094;-77
2022/08/05 04:41:09;;;;;;;10.55;7.25;;;;;;;;;;4967892;28;20432;-77
2022/08/05 04:43:35;;;;;;;13.90;7.63;;;;;;;;;;4953601;29;20027;-77
2022/08/05 04:46:01;;;;;;;13.98;6.50;;;;;;;;;;4952299;29;20440;-77
2022/08/05 04:48:27;;;;;;;11.82;9.05;;;;;;;;;;4952218;29;20027;-77
2022/08/05 04:50:52;;;;;;;8.70;6.65;;;;;;;;;;4953373;29;20527;-77
2022/08/05 04:53:18;;;;;;;12.25;7.25;;;;;;;;;;4951833;29;20110;-76
2022/08/05 04:55:44;;;;;;;8.63;6.70;;;;;;;;;;4955132;29;20039;-76
2022/08/05 04:58:12;;;;;;;10.82;7.80;;;;;;;;;;4953758;29;20026;-76
2022/08/05 05:00:39;;;;;;;8.27;7.38;;;;;;;;;;4978747;28;20029;-76
2022/08/05 05:03:06;;;;;;;8.05;6.60;;;;;;;;;;4969104;28;20464;-74
2022/08/05 05:05:32;;;;;;;10.93;6.57;;;;;;;;;;4969892;28;20034;-73
2022/08/05 05:08:05;;;;;;;12.30;7.43;;;;;;;;;;4971021;28;20037;-75
2022/08/05 05:10:40;;;;;;;14.07;6.85;;;;;;;;;;4985833;28;20031;-77
2022/08/05 05:13:16;;;;;;;10.00;7.60;;;;;;;;;;4965053;28;20054;-79
2022/08/05 05:15:44;;;;;;;11.90;7.68;;;;;;;;;;4960678;28;20062;-73
2022/08/05 05:18:18;;;;;;;13.75;8.23;;;;;;;;;;4970481;28;20097;-76
2022/08/05 05:20:45;;;;;;;12.18;8.52;;;;;;;;;;4977766;28;20818;-73
2022/08/05 05:23:12;;;;;;;10.38;7.25;;;;;;;;;;4964133;28;20116;-73
2022/08/05 05:25:40;;;;;;;11.93;7.30;;;;;;;;;;4984389;28;20384;-75
2022/08/05 05:28:10;;;;;;;11.07;7.80;;;;;;;;;;4969678;28;20035;-82
2022/08/05 05:30:38;;;;;;;10.77;6.72;;;;;;;;;;4961761;28;20973;-77
2022/08/05 05:33:06;;;;;;;18.67;9.90;;;;;;;;;;4972773;28;20069;-80
2022/08/05 05:35:32;;;;;;;8.90;6.88;;;;;;;;;;4968119;28;20508;-78
2022/08/05 05:37:59;;;;;;;9.85;8.35;;;;;;;;;;4968858;28;20707;-79
2022/08/05 05:40:25;;;;;;;11.60;7.95;;;;;;;;;;4968665;28;20030;-75
2022/08/05 05:42:51;;;;;;;14.77;7.47;;;;;;;;;;4960105;28;20031;-77
2022/08/05 05:45:18;;;;;;;14.30;7.43;;;;;;;;;;4962859;28;20117;-75
2022/08/05 05:47:43;;;;;;;17.20;7.75;;;;;;;;;;4952948;28;20062;-73
2022/08/05 05:50:12;;;;;;;13.35;7.20;;;;;;;;;;4969498;28;20026;-75
2022/08/05 05:52:37;;;;;;;12.18;7.45;;;;;;;;;;4965292;28;20035;-72
2022/08/05 05:55:07;;;;;;;14.15;6.97;;;;;;;;;;4968274;28;20039;-75
2022/08/05 05:57:34;;;;;;;15.38;6.57;;;;;;;;;;4968591;28;20102;-74
2022/08/05 05:59:59;;;;;;;8.73;6.18;;;;;;;;;;4969300;28;20026;-74
2022/08/05 06:02:25;;;;;;;15.10;6.85;;;;;;;;;;4966082;28;20054;-75
2022/08/05 06:04:51;;;;;;;16.50;6.60;;;;;;;;;;4965317;28;20115;-76
2022/08/05 06:07:16;;;;;;;9.25;6.35;;;;;;;;;;4950078;29;20600;-74
2022/08/05 06:09:42;;;;;;;8.00;5.90;;;;;;;;;;4962619;28;20435;-79
2022/08/05 06:12:08;;;;;;;7.05;6.20;;;;;;;;;;4966719;28;20205;-73
2022/08/05 06:14:36;;;;;;;17.67;9.20;;;;;;;;;;4975857;28;20121;-73
2022/08/05 06:17:02;;;;;;;12.50;6.88;;;;;;;;;;4956768;28;20041;-73
2022/08/05 06:19:33;;;;;;;9.57;6.88;;;;;;;;;;4973933;28;20026;-75
2022/08/05 06:21:59;;;;;;;11.98;7.10;;;;;;;;;;4953448;28;20111;-73
2022/08/05 06:24:24;;;;;;;22.27;7.90;;;;;;;;;;4962169;28;20030;-73
2022/08/05 06:26:50;;;;;;;10.50;6.70;;;;;;;;;;4957494;28;20555;-74
2022/08/05 06:29:17;;;;;;;11.30;6.80;;;;;;;;;;4968797;28;20034;-76
2022/08/05 06:31:44;;;;;;;33.65;8.20;;;;;;;;;;4969382;28;20045;-76
2022/08/05 06:34:09;;;;;;;8.70;6.25;;;;;;;;;;4973935;28;20038;-76
2022/08/05 06:36:35;;;;;;;11.20;6.60;;;;;;;;;;4964255;28;20038;-76
2022/08/05 06:39:09;;;;;;;10.80;7.65;;;;;;;;;;4957298;28;20090;-75
2022/08/05 06:41:36;;;;;;;11.23;7.07;;;;;;;;;;4967910;28;20094;-76
2022/08/05 06:44:02;;;;;;;10.75;6.38;;;;;;;;;;4969315;28;20039;-74
2022/08/05 06:46:27;;;;;;;25.40;7.93;;;;;;;;;;4969849;28;20034;-81
2022/08/05 06:48:57;;;;;;;12.20;7.18;;;;;;;;;;4975774;28;20038;-75
2022/08/05 06:51:23;;;;;;;13.43;6.28;;;;;;;;;;4970960;28;20042;-76
2022/08/05 06:53:49;;;;;;;14.30;7.03;;;;;;;;;;4959965;28;20031;-78
2022/08/05 06:56:14;;;;;;;13.95;7.35;;;;;;;;;;4972139;28;20121;-78
2022/08/05 06:58:43;;;;;;;8.95;6.68;;;;;;;;;;4956372;28;20165;-75
2022/08/05 07:01:12;;;;;;;12.43;6.32;;;;;;;;;;4956565;28;20165;-74
2022/08/05 07:03:37;;;;;;;10.55;6.38;;;;;;;;;;4961947;28;20035;-78
2022/08/05 07:06:03;;;;;;;9.82;5.93;;;;;;;;;;4971348;28;20038;-73
2022/08/05 07:08:30;;;;;;;13.60;7.13;;;;;;;;;;4950923;28;20370;-77
2022/08/05 07:10:56;;;;;;;6.78;5.57;;;;;;;;;;4957319;28;20038;-76
2022/08/05 07:18:51;;;;;;;7.85;6.03;;;;;;;;;;4958847;28;20030;-75
2022/08/05 07:21:16;;;;;;;7.43;5.70;;;;;;;;;;4966509;28;20027;-75
2022/08/05 07:23:42;;;;;;;8.88;6.75;;;;;;;;;;4959631;28;20035;-74
2022/08/05 07:26:07;;;;;;;9.20;5.97;;;;;;;;;;4953090;28;20125;-75
2022/08/05 07:28:33;;;;;;;9.93;5.75;;;;;;;;;;4971200;28;20090;-77
2022/08/05 07:30:58;;;;;;;10.20;5.75;;;;;;;;;;4970577;28;20535;-77
2022/08/05 07:33:26;;;;;;;9.38;5.15;;;;;;;;;;4953978;28;20071;-78
2022/08/05 07:35:51;;;;;;;12.57;5.65;;;;;;;;;;4957953;28;20039;-76
2022/08/05 07:38:17;;;;;;;11.25;5.18;;;;;;;;;;4971101;28;20105;-75
2022/08/05 07:40:43;;;;;;;13.35;5.97;;;;;;;;;;4958340;28;20023;-75
2022/08/05 07:43:09;;;;;;;6.18;5.10;;;;;;;;;;4963312;28;20105;-76
2022/08/05 07:45:35;;;;;;;11.70;5.95;;;;;;;;;;4964056;28;20050;-74
2022/08/05 07:48:00;;;;;;;8.93;5.53;;;;;;;;;;4952150;28;21264;-75
2022/08/05 07:50:29;;;;;;;8.57;5.38;;;;;;;;;;4966013;28;20027;-77
2022/08/05 07:52:55;;;;;;;6.57;4.80;;;;;;;;;;4966875;28;20535;-77
2022/08/05 07:55:20;;;;;;;9.88;5.97;;;;;;;;;;4949567;28;20035;-76
2022/08/05 07:57:46;;;;;;;7.68;5.03;;;;;;;;;;4954249;28;20033;-74
2022/08/05 08:00:24;;;;;;;7.57;5.13;;;;;;;;;;4961264;28;20126;-77
2022/08/05 08:02:49;;;;;;;11.02;5.85;;;;;;;;;;4957132;28;20042;-76
2022/08/05 08:05:15;;;;;;;18.88;6.88;;;;;;;;;;4966868;28;20027;-76
2022/08/05 08:07:41;;;;;;;8.48;4.40;;;;;;;;;;4968018;28;20034;-76
2022/08/05 08:10:07;;;;;;;6.65;4.45;;;;;;;;;;4979747;28;20043;-79
2022/08/05 08:12:32;;;;;;;7.88;4.38;;;;;;;;;;4964855;28;20047;-77
2022/08/05 08:14:58;;;;;;;9.15;4.40;;;;;;;;;;4975692;28;20031;-79
2022/08/05 08:17:23;;;;;;;9.30;4.97;;;;;;;;;;4959159;28;20058;-77
2022/08/05 08:19:49;;;;;;;7.90;4.60;;;;;;;;;;4953354;28;20120;-75
2022/08/05 08:22:14;;;;;;;5.78;4.55;;;;;;;;;;4946165;28;20035;-74
2022/08/05 08:24:40;;;;;;;6.85;4.82;;;;;;;;;;4966774;28;20105;-76
2022/08/05 08:27:06;;;;;;;9.38;5.40;;;;;;;;;;4952859;28;20110;-77
2022/08/05 08:29:31;;;;;;;9.20;4.65;;;;;;;;;;4964919;28;20101;-78
2022/08/05 08:31:57;;;;;;;6.85;5.07;;;;;;;;;;4970274;28;20647;-76
2022/08/05 08:34:25;;;;;;;13.45;5.00;;;;;;;;;;4962713;28;20475;-77
2022/08/05 08:36:50;;;;;;;9.50;5.22;;;;;;;;;;4953785;28;20023;-75
2022/08/05 08:39:17;;;;;;;7.32;5.45;;;;;;;;;;4952239;28;20031;-76
2022/08/05 08:41:49;;;;;;;9.25;4.90;;;;;;;;;;4958746;28;20066;-76
2022/08/05 08:44:18;;;;;;;14.35;4.82;;;;;;;;;;4949044;28;20035;-76
2022/08/05 08:46:46;;;;;;;8.63;6.07;;;;;;;;;;4969804;28;20039;-76
2022/08/05 08:49:19;;;;;;;7.82;4.68;;;;;;;;;;4963517;28;20030;-76
2022/08/05 08:51:53;;;;;;;9.02;4.68;;;;;;;;;;4954612;28;20027;-76
2022/08/05 08:54:19;;;;;;;13.82;5.80;;;;;;;;;;4952959;28;20031;-77
2022/08/05 08:56:45;;;;;;;6.97;4.80;;;;;;;;;;4963478;28;20038;-76
2022/08/05 08:59:11;;;;;;;12.05;5.28;;;;;;;;;;4959020;28;20042;-76
2022/08/05 09:01:37;;;;;;;5.28;4.55;;;;;;;;;;4946624;28;20034;-76
2022/08/05 09:04:03;;;;;;;6.43;4.80;;;;;;;;;;4948814;28;20043;-77
2022/08/05 09:06:30;;;;;;;13.40;6.25;;;;;;;;;;4952647;28;20045;-77
2022/08/05 09:08:58;;;;;;;7.43;5.03;;;;;;;;;;4955551;28;20109;-76
2022/08/05 09:11:23;;;;;;;9.77;4.93;;;;;;;;;;4970956;28;20483;-76
2022/08/05 09:13:49;;;;;;;7.30;4.68;;;;;;;;;;4966598;28;20081;-75
2022/08/05 09:16:15;;;;;;;8.35;5.38;;;;;;;;;;4961593;28;20367;-77
2022/08/05 09:18:43;;;;;;;5.78;4.63;;;;;;;;;;4954580;28;20038;-76
2022/08/05 09:21:09;;;;;;;13.23;5.00;;;;;;;;;;4954015;28;20555;-77
2022/08/05 09:23:36;;;;;;;8.18;5.32;;;;;;;;;;4971466;28;20136;-76
2022/08/05 09:26:09;;;;;;;7.90;4.68;;;;;;;;;;4968397;28;20071;-77
2022/08/05 09:28:36;;;;;;;7.80;5.10;;;;;;;;;;4943261;28;20035;-76
2022/08/05 09:31:11;;;;;;;4.70;4.35;;;;;;;;;;4965714;28;20485;-75
2022/08/05 09:33:55;;;;;;;7.30;5.00;;;;;;;;;;4965561;28;20035;-76
2022/08/05 09:36:21;;;;;;;6.68;5.03;;;;;;;;;;4978595;28;20058;-77
2022/08/05 09:39:11;;;;;;;6.93;5.60;;;;;;;;;;4977513;28;20447;-76
2022/08/05 09:42:03;;;;;;;6.25;5.00;;;;;;;;;;4953208;28;21147;-75
2022/08/05 09:44:32;;;;;;;5.93;4.72;;;;;;;;;;4959797;28;20047;-77
2022/08/05 09:47:11;;;;;;;9.18;4.85;;;;;;;;;;4952893;28;20113;-76
2022/08/05 09:49:51;;;;;;;6.43;5.00;;;;;;;;;;4970546;28;20637;-77
2022/08/05 09:52:33;;;;;;;11.68;6.03;;;;;;;;;;4952635;28;20081;-76
2022/08/05 09:55:04;;;;;;;5.63;4.80;;;;;;;;;;4966081;28;20127;-77
2022/08/05 09:57:32;;;;;;;8.38;5.10;;;;;;;;;;4968816;28;20023;-77
2022/08/05 10:00:24;;;;;;;6.47;4.97;;;;;;;;;;4949572;28;20027;-76
2022/08/05 10:02:55;;;;;;;11.13;8.75;;;;;;;;;;4953165;28;20117;-76
2022/08/05 10:05:25;;;;;;;8.60;5.50;;;;;;;;;;4962332;28;20043;-77
2022/08/05 10:07:52;;;;;;;;;;;;;;;;;;4958944;28;20118;-77
2022/08/05 10:10:23;;;;;;;5.07;4.57;;;;;;;;;;4977764;28;19964;-77
2022/08/05 10:12:53;;;;;;;9.25;6.03;;;;;;;;;;4962211;28;20050;-77
2022/08/05 10:15:31;;;;;;;8.50;5.15;;;;;;;;;;4965868;28;20069;-76
2022/08/05 10:18:21;;;;;;;7.25;5.05;;;;;;;;;;4965719;28;20462;-77
2022/08/05 10:20:51;;;;;;;5.90;4.82;;;;;;;;;;4958101;28;20430;-77
2022/08/05 10:23:36;;;;;;;5.45;4.95;;;;;;;;;;4961223;28;20041;-75
2022/08/05 10:26:08;;;;;;;8.15;4.38;;;;;;;;;;4961638;28;20067;-78
2022/08/05 10:28:35;;;;;;;5.15;4.28;;;;;;;;;;4964460;28;20039;-78
2022/08/05 10:31:01;;;;;;;6.40;4.35;;;;;;;;;;4963879;28;20041;-78
2022/08/05 10:33:30;;;;;;;5.25;4.53;;;;;;;;;;4965335;28;20114;-78
2022/08/05 10:35:59;;;;;;;7.22;4.75;;;;;;;;;;4962891;28;20031;-77
2022/08/05 10:38:28;;;;;;;8.70;5.32;;;;;;;;;;4971746;28;20142;-77
2022/08/05 10:40:57;;;;;;;5.97;4.35;;;;;;;;;;4958450;28;20451;-77
2022/08/05 10:43:46;;;;;;;6.35;4.53;;;;;;;;;;4955360;28;20062;-76
2022/08/05 10:46:14;;;;;;;6.13;4.72;;;;;;;;;;4965484;28;20077;-77
2022/08/05 10:48:45;;;;;;;5.80;4.03;;;;;;;;;;4964025;28;20078;-78
2022/08/05 10:51:12;;;;;;;8.18;4.53;;;;;;;;;;4966670;28;20129;-78
2022/08/05 10:53:43;;;;;;;5.32;4.70;;;;;;;;;;4967978;28;20126;-76
2022/08/05 10:56:14;;;;;;;6.13;3.90;;;;;;;;;;4972389;28;20132;-78
2022/08/05 10:59:06;;;;;;;4.45;4.05;;;;;;;;;;4955224;28;20097;-77
2022/08/05 11:01:41;;;;;;;4.95;4.40;;;;;;;;;;4968258;28;20572;-76
2022/08/05 11:04:20;;;;;;;11.80;9.23;;;;;;;;;;4965950;28;20033;-78
2022/08/05 11:06:56;;;;;;;6.35;5.00;;;;;;;;;;4961351;28;20361;-78
2022/08/05 11:09:23;;;;;;;11.30;5.20;;;;;;;;;;4980119;28;20110;-77
2022/08/05 11:11:50;;;;;;;10.30;5.93;;;;;;;;;;4967158;28;20043;-79
2022/08/05 11:14:32;;;;;;;9.07;4.65;;;;;;;;;;4965640;28;20905;-79
2022/08/05 11:17:25;;;;;;;6.95;4.60;;;;;;;;;;4978615;28;20490;-78
2022/08/05 11:19:56;;;;;;;9.25;5.25;;;;;;;;;;4963560;28;20031;-78
2022/08/05 11:22:40;;;;;;;;;;;;;;;;;;4969858;28;20030;-78
2022/08/05 11:25:29;;;;;;;9.10;5.60;;;;;;;;;;4964718;28;19922;-75
2022/08/05 11:28:10;;;;;;;7.65;5.63;;;;;;;;;;4963645;28;20463;-76
2022/08/05 11:31:09;;;;;;;7.20;4.80;;;;;;;;;;4961650;28;20027;-76
2022/08/05 11:33:51;;;;;;;12.57;5.20;;;;;;;;;;4964763;28;20046;-78
2022/08/05 11:36:37;;;;;;;9.65;5.45;;;;;;;;;;4970961;28;20049;-77
2022/08/05 11:39:04;;;;;;;8.18;4.90;;;;;;;;;;4964069;28;20030;-78
2022/08/05 11:41:34;;;;;;;11.50;4.95;;;;;;;;;;4958963;28;20031;-77
2022/08/05 11:44:05;;;;;;;5.45;4.80;;;;;;;;;;4966189;28;20550;-77
2022/08/05 11:46:50;;;;;;;9.35;5.32;;;;;;;;;;4962615;28;20125;-77
2022/08/05 11:49:17;;;;;;;8.85;4.90;;;;;;;;;;4965524;28;20030;-77
2022/08/05 11:51:52;;;;;;;7.30;4.47;;;;;;;;;;4956447;28;20114;-77
2022/08/05 11:54:27;;;;;;;8.45;5.00;;;;;;;;;;4961091;28;20082;-77
2022/08/05 11:56:54;;;;;;;6.28;4.38;;;;;;;;;;4962358;28;20136;-77
2022/08/05 11:59:28;;;;;;;5.30;4.43;;;;;;;;;;4962476;28;20034;-77
2022/08/05 12:01:59;;;;;;;4.70;4.30;;;;;;;;;;4976397;28;20046;-77
2022/08/05 12:04:27;;;;;;;8.18;4.60;;;;;;;;;;4978607;28;20077;-81
2022/08/05 12:06:54;;;;;;;6.53;4.90;;;;;;;;;;4974345;28;20038;-80
2022/08/05 12:09:24;;;;;;;10.95;4.82;;;;;;;;;;4979356;28;20046;-77
2022/08/05 12:11:51;;;;;;;7.18;4.82;;;;;;;;;;4993126;28;20038;-76
2022/08/05 12:14:19;;;;;;;9.63;5.78;;;;;;;;;;4976650;28;20046;-77
2022/08/05 12:16:46;;;;;;;10.30;6.33;;;;;;;;;;4974625;28;20095;-77
2022/08/05 12:19:12;;;;;;;6.43;4.15;;;;;;;;;;4980057;28;20069;-78
2022/08/05 12:21:51;;;;;;;5.15;4.65;;;;;;;;;;4981678;28;20039;-77
2022/08/05 12:24:19;;;;;;;10.30;4.57;;;;;;;;;;4962336;28;20035;-76
2022/08/05 12:26:51;;;;;;;7.03;4.38;;;;;;;;;;4964423;28;20103;-76
2022/08/05 12:29:23;;;;;;;8.82;5.13;;;;;;;;;;4966178;28;20131;-76
2022/08/05 12:31:51;;;;;;;6.82;4.63;;;;;;;;;;4979616;28;20118;-76
2022/08/05 12:34:40;;;;;;;8.35;6.18;;;;;;;;;;4964828;28;20483;-77
2022/08/05 12:37:11;;;;;;;7.63;4.65;;;;;;;;;;4964106;28;20054;-77
2022/08/05 12:39:39;;;;;;;7.32;4.88;;;;;;;;;;4962968;28;20043;-76
2022/08/05 12:42:11;;;;;;;7.70;4.85;;;;;;;;;;4967319;28;20035;-76
2022/08/05 12:44:37;;;;;;;8.35;5.10;;;;;;;;;;4966580;28;20042;-76
2022/08/05 12:47:03;;;;;;;6.10;4.50;;;;;;;;;;4960045;28;20364;-80
2022/08/05 12:49:58;;;;;;;8.60;4.75;;;;;;;;;;4978465;28;20050;-76
2022/08/05 12:52:24;;;;;;;9.35;4.90;;;;;;;;;;4966573;28;20050;-76
2022/08/05 12:54:50;;;;;;;6.97;5.18;;;;;;;;;;4960966;28;20030;-76
2022/08/05 12:57:16;;;;;;;8.40;5.18;;;;;;;;;;4973575;28;20347;-77
2022/08/05 12:59:46;;;;;;;6.70;4.53;;;;;;;;;;4960538;28;20146;-79
2022/08/05 13:02:15;;;;;;;8.85;5.03;;;;;;;;;;4979530;28;20023;-76
2022/08/05 13:04:42;;;;;;;8.23;5.05;;;;;;;;;;4968161;28;20069;-76
2022/08/05 13:07:11;;;;;;;7.57;4.72;;;;;;;;;;4962156;28;20487;-77
2022/08/05 13:09:38;;;;;;;10.05;4.82;;;;;;;;;;4957123;28;20465;-77
2022/08/05 13:12:14;;;;;;;10.30;5.07;;;;;;;;;;4967375;28;20041;-77
2022/08/05 13:14:42;;;;;;;11.00;4.93;;;;;;;;;;4978841;28;20079;-77
2022/08/05 13:17:08;;;;;;;6.32;5.00;;;;;;;;;;4963730;28;20027;-76
2022/08/05 13:19:33;;;;;;;9.07;5.53;;;;;;;;;;4963770;28;20030;-78
2022/08/05 13:21:59;;;;;;;8.93;5.57;;;;;;;;;;4966460;28;20180;-76
2022/08/05 13:24:24;;;;;;;13.73;4.88;;;;;;;;;;4968714;28;20035;-78
2022/08/05 13:26:56;;;;;;;7.30;5.65;;;;;;;;;;4962315;28;20451;-78
2022/08/05 13:29:21;;;;;;;6.93;5.00;;;;;;;;;;4982930;28;20031;-77
2022/08/05 13:31:47;;;;;;;11.63;5.00;;;;;;;;;;4970326;28;20415;-77
2022/08/05 13:34:14;;;;;;;12.57;6.32;;;;;;;;;;4958536;28;20043;-78
2022/08/05 13:36:41;;;;;;;5.50;4.63;;;;;;;;;;4954576;28;20366;-77
2022/08/05 13:39:07;;;;;;;6.85;5.30;;;;;;;;;;4967859;28;20058;-78
2022/08/05 13:41:33;;;;;;;9.68;6.15;;;;;;;;;;4970840;28;20067;-77
2022/08/05 13:43:58;;;;;;;11.38;5.75;;;;;;;;;;4964377;28;20030;-77
2022/08/05 13:46:26;;;;;;;8.85;5.15;;;;;;;;;;4961115;28;20083;-78
2022/08/05 13:48:51;;;;;;;6.22;5.10;;;;;;;;;;4965588;28;20098;-78
2022/08/05 13:51:28;;;;;;;6.60;5.32;;;;;;;;;;4965081;28;20105;-78
2022/08/05 13:53:54;;;;;;;11.00;5.60;;;;;;;;;;4964939;28;20031;-79
2022/08/05 13:56:19;;;;;;;6.90;4.85;;;;;;;;;;4953833;28;20158;-79
2022/08/05 13:58:46;;;;;;;14.88;5.10;;;;;;;;;;4957664;28;20604;-78
2022/08/05 14:01:11;;;;;;;9.40;5.28;;;;;;;;;;4955921;28;20369;-77
2022/08/05 14:03:37;;;;;;;15.60;6.25;;;;;;;;;;4966818;28;20038;-79
2022/08/05 14:06:02;;;;;;;5.78;4.72;;;;;;;;;;4955867;28;20059;-78
2022/08/05 14:08:28;;;;;;;8.18;5.97;;;;;;;;;;4957166;28;20526;-77
2022/08/05 14:10:54;;;;;;;8.77;4.85;;;;;;;;;;4958691;28;20033;-78
2022/08/05 14:13:24;;;;;;;8.10;5.28;;;;;;;;;;4977757;28;20526;-73
2022/08/05 14:15:50;;;;;;;7.35;4.65;;;;;;;;;;4959059;28;20042;-77
2022/08/05 14:18:16;;;;;;;18.20;8.95;;;;;;;;;;4963389;28;20022;-79
2022/08/05 14:20:41;;;;;;;6.35;5.75;;;;;;;;;;4968140;28;20135;-79
2022/08/05 14:23:07;;;;;;;7.03;4.97;;;;;;;;;;4965114;28;20050;-78
2022/08/05 14:25:32;;;;;;;8.57;5.20;;;;;;;;;;4974934;28;20371;-79
2022/08/05 14:27:58;;;;;;;10.43;5.50;;;;;;;;;;4955276;28;20484;-79
2022/08/05 14:30:24;;;;;;;6.60;4.97;;;;;;;;;;4974312;28;20034;-80
2022/08/05 14:32:49;;;;;;;5.55;4.75;;;;;;;;;;4963767;28;20039;-76
2022/08/05 14:35:15;;;;;;;10.02;5.65;;;;;;;;;;4976806;28;20030;-79
2022/08/05 14:37:40;;;;;;;8.45;4.90;;;;;;;;;;4962125;28;20038;-78
2022/08/05 14:40:06;;;;;;;7.63;5.18;;;;;;;;;;4956456;28;20023;-78
2022/08/05 14:42:32;;;;;;;5.95;4.55;;;;;;;;;;4962408;28;20030;-80
2022/08/05 14:44:57;;;;;;;5.43;4.90;;;;;;;;;;4956530;28;20393;-78
2022/08/05 14:47:23;;;;;;;7.78;4.90;;;;;;;;;;4973813;28;20489;-79
2022/08/05 14:49:49;;;;;;;8.25;4.70;;;;;;;;;;4958122;28;20468;-80
2022/08/05 14:52:14;;;;;;;7.57;5.10;;;;;;;;;;4973646;28;20033;-79
2022/08/05 14:54:40;;;;;;;4.50;4.15;;;;;;;;;;4958027;28;20579;-78